Time;durP1;ratioP1;P1;durP2;ratioP2;P2;SDS_P1;SDS_P2;PMS_P1;PMS_P2;Temp;Humidity;BMP_temperature;BMP_pressure;BME280_temperature;BME280_humidity;BME280_pressure;Samples;Min_cycle;Max_cycle;Signal;HPM_P1;HPM_P2
2023/10/27 00:00:30;;;;;;;49.08;31.90;;;;;;;10.16;100.00;99116.94;5049379;28;20016;-79
2023/10/27 00:02:55;;;;;;;45.97;32.65;;;;;;;10.16;100.00;99111.69;5049490;28;20105;-79
2023/10/27 00:05:21;;;;;;;44.42;30.83;;;;;;;10.18;100.00;99117.63;5050806;28;20025;-79
2023/10/27 00:07:46;;;;;;;46.80;31.15;;;;;;;10.18;100.00;99112.38;5046680;28;20029;-79
2023/10/27 00:10:13;;;;;;;48.00;31.70;;;;;;;10.16;100.00;99109.06;5050626;28;20029;-79
2023/10/27 00:12:38;;;;;;;49.28;33.97;;;;;;;10.16;100.00;99109.06;5036639;28;20024;-79
2023/10/27 00:15:05;;;;;;;46.53;32.58;;;;;;;10.16;100.00;99116.94;5035637;28;20025;-79
2023/10/27 00:17:30;;;;;;;51.50;34.13;;;;;;;10.14;100.00;99111.84;5049885;28;20494;-79
2023/10/27 00:19:55;;;;;;;48.63;32.50;;;;;;;10.12;100.00;99105.91;5051908;28;20035;-79
2023/10/27 00:22:21;;;;;;;49.22;33.13;;;;;;;10.14;100.00;99105.75;5033609;28;20036;-79
2023/10/27 00:24:46;;;;;;;48.83;32.40;;;;;;;10.12;100.00;99097.22;5050672;28;20029;-79
2023/10/27 00:27:11;;;;;;;50.72;33.28;;;;;;;10.13;100.00;99098.88;5050452;28;20459;-79
2023/10/27 00:29:36;;;;;;;51.97;33.88;;;;;;;10.12;100.00;99098.03;5048604;28;20021;-80
2023/10/27 00:32:02;;;;;;;49.95;34.55;;;;;;;10.12;100.00;99098.03;5049568;28;20399;-78
2023/10/27 00:34:27;;;;;;;50.05;33.80;;;;;;;10.12;100.00;99092.78;5051087;28;20115;-78
2023/10/27 00:36:53;;;;;;;50.92;34.63;;;;;;;10.12;100.00;99087.53;5050448;28;20028;-78
2023/10/27 00:39:18;;;;;;;44.97;33.10;;;;;;;10.13;100.00;99089.19;5035281;28;20029;-78
2023/10/27 00:41:43;;;;;;;50.25;34.53;;;;;;;10.14;100.00;99090.00;5049115;28;20359;-78
2023/10/27 00:44:09;;;;;;;51.15;34.55;;;;;;;10.15;100.00;99081.13;5051330;28;20029;-78
2023/10/27 00:46:35;;;;;;;50.38;35.45;;;;;;;10.12;100.00;99090.16;5049429;28;20025;-78
2023/10/27 00:49:01;;;;;;;52.35;36.20;;;;;;;10.12;100.00;99086.69;5043513;28;20099;-78
2023/10/27 00:51:28;;;;;;;57.05;36.53;;;;;;;10.12;100.00;99081.44;5019173;28;20394;-78
2023/10/27 00:53:54;;;;;;;50.92;34.42;;;;;;;10.13;100.00;99088.34;5049328;28;20497;-78
2023/10/27 00:56:23;;;;;;;53.55;35.38;;;;;;;10.14;100.00;99084.75;5050710;28;20404;-79
2023/10/27 00:58:48;;;;;;;53.95;36.83;;;;;;;10.14;100.00;99090.00;5031977;28;20483;-79
2023/10/27 01:01:17;;;;;;;51.55;35.80;;;;;;;10.11;100.00;99079.78;5032344;28;20098;-78
2023/10/27 01:03:43;;;;;;;65.80;36.40;;;;;;;10.15;100.00;99081.97;5050509;28;20382;-79
2023/10/27 01:06:08;;;;;;;55.75;35.97;;;;;;;10.14;100.00;99084.75;5048437;28;20025;-79
2023/10/27 01:08:34;;;;;;;50.45;33.92;;;;;;;10.17;100.00;99084.44;5048578;28;20383;-79
2023/10/27 01:11:02;;;;;;;48.63;33.42;;;;;;;10.16;100.00;99083.59;5049432;28;20367;-79
2023/10/27 01:13:28;;;;;;;48.78;33.83;;;;;;;10.17;100.00;99079.19;5048162;28;20118;-79
2023/10/27 01:15:53;;;;;;;46.85;32.35;;;;;;;10.19;100.00;99077.22;5047508;28;20494;-79
2023/10/27 01:18:18;;;;;;;49.13;32.63;;;;;;;10.16;100.00;99073.09;5050425;28;20470;-79
2023/10/27 01:20:44;;;;;;;49.63;32.20;;;;;;;10.18;100.00;99075.56;5049518;28;20059;-79
2023/10/27 01:23:10;;;;;;;47.30;32.13;;;;;;;10.19;100.00;99071.97;5031948;28;20061;-79
2023/10/27 01:25:35;;;;;;;45.30;31.88;;;;;;;10.18;100.00;99075.56;5047162;28;20025;-79
2023/10/27 01:28:02;;;;;;;44.20;31.15;;;;;;;10.18;100.00;99073.75;5030738;28;20398;-79
2023/10/27 01:30:27;;;;;;;46.30;30.65;;;;;;;10.19;100.00;99071.97;5049015;28;20095;-79
2023/10/27 01:32:53;;;;;;;45.17;29.23;;;;;;;10.19;100.00;99078.03;5049875;28;20028;-78
2023/10/27 01:35:18;;;;;;;50.17;30.05;;;;;;;10.19;100.00;99074.59;5065032;28;20037;-79
2023/10/27 01:37:43;;;;;;;42.47;28.60;;;;;;;10.19;100.00;99072.78;5032586;28;20163;-79
2023/10/27 01:40:10;;;;;;;44.75;28.35;;;;;;;10.19;100.00;99071.97;5050242;28;20079;-79
2023/10/27 01:42:36;;;;;;;43.20;27.50;;;;;;;10.19;100.00;99071.97;5047294;28;20021;-79
2023/10/27 01:45:06;;;;;;;37.58;26.63;;;;;;;10.19;100.00;99074.59;5030569;28;20029;-79
2023/10/27 01:47:33;;;;;;;39.10;25.38;;;;;;;10.19;100.00;99071.97;5030431;28;20021;-77
2023/10/27 01:50:00;;;;;;;38.97;24.45;;;;;;;10.16;100.00;99067.03;5028568;28;20386;-78
2023/10/27 01:52:25;;;;;;;45.10;25.65;;;;;;;10.18;100.00;99072.94;5030111;28;20017;-78
2023/10/27 01:54:50;;;;;;;41.22;25.90;;;;;;;10.19;100.00;99066.69;5032644;28;20037;-78
2023/10/27 01:57:16;;;;;;;35.20;23.98;;;;;;;10.18;100.00;99065.06;5050048;28;20104;-78
2023/10/27 01:59:42;;;;;;;40.38;24.20;;;;;;;10.17;100.00;99063.41;5048403;28;20021;-79
2023/10/27 02:02:07;;;;;;;38.53;24.50;;;;;;;10.20;100.00;99068.34;5047450;28;20590;-79
2023/10/27 02:04:35;;;;;;;36.38;23.42;;;;;;;10.18;100.00;99067.69;5049290;28;20032;-79
2023/10/27 02:07:01;;;;;;;33.47;22.10;;;;;;;10.20;100.00;99057.84;5049025;28;20367;-79
2023/10/27 02:09:26;;;;;;;33.78;20.77;;;;;;;10.19;100.00;99051.75;5048242;28;20031;-79
2023/10/27 02:11:52;;;;;;;34.72;20.80;;;;;;;10.20;100.00;99055.22;5049011;28;20452;-79
2023/10/27 02:14:18;;;;;;;35.45;20.42;;;;;;;10.19;100.00;99050.94;5038754;28;20066;-79
2023/10/27 02:16:43;;;;;;;33.20;20.85;;;;;;;10.18;100.00;99047.47;5048346;28;20065;-79
2023/10/27 02:19:09;;;;;;;34.45;19.85;;;;;;;10.17;100.00;99047.63;5046349;28;20025;-79
2023/10/27 02:21:34;;;;;;;33.33;19.83;;;;;;;10.19;100.00;99040.44;5015624;28;20036;-79
2023/10/27 02:24:00;;;;;;;27.48;19.23;;;;;;;10.16;100.00;99040.72;5043645;28;20593;-80
2023/10/27 02:26:25;;;;;;;31.05;19.65;;;;;;;10.15;100.00;99039.09;5049874;28;20025;-79
2023/10/27 02:28:50;;;;;;;32.92;19.85;;;;;;;10.17;100.00;99040.56;5040824;28;20025;-79
2023/10/27 02:31:16;;;;;;;32.63;20.13;;;;;;;10.17;100.00;99042.38;5037156;28;20557;-79
2023/10/27 02:33:41;;;;;;;30.60;19.35;;;;;;;10.14;100.00;99035.63;5031225;28;20088;-79
2023/10/27 02:36:06;;;;;;;31.05;18.40;;;;;;;10.15;100.00;99039.09;5047711;28;20025;-79
2023/10/27 02:38:32;;;;;;;30.83;18.17;;;;;;;10.16;100.00;99035.47;5048585;28;20094;-79
2023/10/27 02:40:57;;;;;;;26.85;17.67;;;;;;;10.15;100.00;99041.72;5048465;28;20025;-79
2023/10/27 02:43:23;;;;;;;32.15;18.02;;;;;;;10.13;100.00;99041.88;5047716;28;20501;-79
2023/10/27 02:45:59;;;;;;;31.10;17.80;;;;;;;10.14;100.00;99034.81;5034428;28;20029;-79
2023/10/27 02:48:25;;;;;;;29.73;17.13;;;;;;;10.11;100.00;99033.31;5038595;28;20107;-79
2023/10/27 02:50:53;;;;;;;30.52;16.98;;;;;;;10.10;100.00;99033.47;5048304;28;20080;-78
2023/10/27 02:53:18;;;;;;;29.45;16.88;;;;;;;10.09;100.00;99027.41;5030552;28;20021;-78
2023/10/27 02:55:44;;;;;;;29.10;16.17;;;;;;;10.10;100.00;99026.41;5049145;28;20482;-79
2023/10/27 02:58:09;;;;;;;26.35;15.43;;;;;;;10.08;100.00;99024.94;5048469;28;20029;-79
2023/10/27 03:00:38;;;;;;;22.30;13.85;;;;;;;10.09;100.00;99013.44;5046172;28;20013;-79
2023/10/27 03:03:04;;;;;;;30.88;14.23;;;;;;;10.05;100.00;99013.75;5027365;28;20041;-80
2023/10/27 03:05:29;;;;;;;26.60;14.48;;;;;;;10.06;100.00;99009.31;5044715;28;20036;-80
2023/10/27 03:07:54;;;;;;;28.50;14.10;;;;;;;10.02;100.00;99019.31;5048795;28;20024;-80
2023/10/27 03:10:20;;;;;;;25.90;14.07;;;;;;;10.02;100.00;99019.31;5035940;28;20025;-80
2023/10/27 03:12:45;;;;;;;24.90;14.27;;;;;;;10.04;100.00;99022.59;5048442;28;20059;-80
2023/10/27 03:15:11;;;;;;;30.25;14.85;;;;;;;10.03;100.00;99017.50;5050419;28;20039;-79
2023/10/27 03:17:36;;;;;;;27.23;13.98;;;;;;;10.01;100.00;99017.66;5050899;28;20021;-79
2023/10/27 03:20:04;;;;;;;31.17;14.07;;;;;;;10.03;100.00;99010.44;5051031;28;20033;-80
2023/10/27 03:22:30;;;;;;;24.23;13.25;;;;;;;10.03;100.00;99015.72;5051696;28;20392;-80
2023/10/27 03:24:55;;;;;;;26.55;13.52;;;;;;;10.01;100.00;99015.03;5051937;28;20020;-80
2023/10/27 03:27:21;;;;;;;24.95;12.90;;;;;;;10.01;100.00;99022.91;5050146;28;20555;-80
2023/10/27 03:29:46;;;;;;;23.83;12.82;;;;;;;10.01;100.00;99016.84;5052099;28;20025;-79
2023/10/27 03:32:12;;;;;;;23.55;12.55;;;;;;;10.01;100.00;99017.66;5052352;28;20081;-80
2023/10/27 03:34:38;;;;;;;27.15;12.98;;;;;;;10.01;100.00;99007.16;5050550;28;20099;-80
2023/10/27 03:37:03;;;;;;;28.90;12.07;;;;;;;10.00;100.00;99002.84;5050068;28;20028;-80
2023/10/27 03:39:29;;;;;;;27.77;11.98;;;;;;;9.99;100.00;99003.84;5050664;28;20024;-80
2023/10/27 03:41:54;;;;;;;22.40;11.10;;;;;;;9.97;100.00;99000.53;5051395;28;20104;-80
2023/10/27 03:44:20;;;;;;;20.08;11.25;;;;;;;9.98;100.00;99002.19;5052580;28;20048;-80
2023/10/27 03:46:45;;;;;;;20.92;11.63;;;;;;;10.00;100.00;99007.28;5050870;28;20406;-80
2023/10/27 03:49:11;;;;;;;24.73;11.68;;;;;;;9.95;100.00;99002.50;5049382;28;20075;-80
2023/10/27 03:51:36;;;;;;;22.02;11.05;;;;;;;9.95;100.00;99007.75;5050010;28;20052;-80
2023/10/27 03:54:02;;;;;;;23.40;11.70;;;;;;;9.95;100.00;99007.75;5050342;28;20506;-80
2023/10/27 03:56:27;;;;;;;22.65;11.40;;;;;;;9.94;100.00;98997.41;5051803;28;20514;-80
2023/10/27 03:58:53;;;;;;;19.67;10.82;;;;;;;9.98;100.00;99010.06;5033785;28;20017;-81
2023/10/27 04:01:18;;;;;;;22.23;11.10;;;;;;;9.94;100.00;99003.47;5030470;28;20469;-80
2023/10/27 04:03:43;;;;;;;25.42;11.75;;;;;;;9.93;100.00;99004.44;5046474;28;20124;-80
2023/10/27 04:06:11;;;;;;;23.02;11.15;;;;;;;9.91;100.00;98998.53;5047414;28;20044;-80
2023/10/27 04:08:36;;;;;;;25.70;11.32;;;;;;;9.92;100.00;99002.81;5025895;28;20364;-80
2023/10/27 04:11:01;;;;;;;15.70;10.20;;;;;;;9.92;100.00;98992.31;5032096;28;20029;-80
2023/10/27 04:13:27;;;;;;;20.67;10.32;;;;;;;9.92;100.00;99002.81;5007277;28;20033;-79
2023/10/27 04:15:53;;;;;;;19.17;10.57;;;;;;;9.91;100.00;98998.53;5022195;28;20056;-80
2023/10/27 04:18:18;;;;;;;18.95;10.55;;;;;;;9.92;100.00;99001.97;5032343;28;20037;-79
2023/10/27 04:20:44;;;;;;;18.83;10.10;;;;;;;9.91;100.00;99001.16;5029604;28;20468;-80
2023/10/27 04:23:09;;;;;;;21.13;10.02;;;;;;;9.91;100.00;99000.34;5022428;28;20060;-80
2023/10/27 04:25:35;;;;;;;19.88;10.00;;;;;;;9.90;100.00;98999.50;5009571;28;20471;-79
2023/10/27 04:28:01;;;;;;;20.23;9.77;;;;;;;9.91;100.00;99001.16;4992444;28;20026;-79
2023/10/27 04:30:26;;;;;;;23.60;10.50;;;;;;;9.91;100.00;99000.34;5014970;28;20028;-79
2023/10/27 04:32:52;;;;;;;16.40;9.80;;;;;;;9.91;100.00;99006.41;5042401;28;20085;-79
2023/10/27 04:35:18;;;;;;;22.67;10.13;;;;;;;9.90;100.00;98998.69;5033558;28;20030;-79
2023/10/27 04:37:43;;;;;;;21.13;10.85;;;;;;;9.90;100.00;99004.75;5028153;28;20044;-79
2023/10/27 04:40:09;;;;;;;25.23;11.27;;;;;;;9.91;100.00;99002.97;5024850;28;20021;-80
2023/10/27 04:42:35;;;;;;;16.45;10.13;;;;;;;9.92;100.00;99001.97;5010861;28;20042;-80
2023/10/27 04:45:00;;;;;;;19.02;10.95;;;;;;;9.92;100.00;99008.06;4991636;28;20033;-79
2023/10/27 04:47:26;;;;;;;21.95;10.80;;;;;;;9.90;100.00;99004.75;4992569;28;20023;-79
2023/10/27 04:49:53;;;;;;;25.13;11.35;;;;;;;9.89;100.00;99007.53;4990780;28;20030;-77
2023/10/27 04:52:18;;;;;;;22.65;10.90;;;;;;;9.90;100.00;99010.03;4999056;28;20391;-78
2023/10/27 04:54:44;;;;;;;19.40;10.68;;;;;;;9.91;100.00;99003.78;5029561;28;20025;-79
2023/10/27 04:57:09;;;;;;;20.83;10.88;;;;;;;9.91;100.00;99001.16;5028406;28;20506;-79
2023/10/27 04:59:34;;;;;;;18.73;11.05;;;;;;;9.91;100.00;99000.34;5013072;28;20026;-79
2023/10/27 05:01:59;;;;;;;20.85;11.02;;;;;;;9.90;100.00;98994.25;5001815;28;20038;-79
2023/10/27 05:04:25;;;;;;;20.02;10.95;;;;;;;9.91;100.00;98995.09;5010777;28;20126;-79
2023/10/27 05:06:51;;;;;;;19.98;10.65;;;;;;;9.90;100.00;98989.00;5009925;28;20534;-79
2023/10/27 05:09:18;;;;;;;24.38;11.50;;;;;;;9.89;100.00;98982.09;5010590;28;20472;-79
2023/10/27 05:11:45;;;;;;;17.35;10.48;;;;;;;9.87;100.00;98984.06;5010088;28;20400;-79
2023/10/27 05:14:12;;;;;;;21.15;10.50;;;;;;;9.88;100.00;98983.09;5011701;28;20087;-79
2023/10/27 05:16:37;;;;;;;19.70;11.05;;;;;;;9.88;100.00;98983.09;5009930;28;20501;-79
2023/10/27 05:19:04;;;;;;;21.60;11.65;;;;;;;9.87;100.00;98984.06;5009950;28;20026;-79
2023/10/27 05:21:30;;;;;;;22.40;11.15;;;;;;;9.90;100.00;98978.50;5011491;28;20457;-79
2023/10/27 05:23:56;;;;;;;27.60;11.90;;;;;;;9.85;100.00;98980.75;5009417;28;20030;-80
2023/10/27 05:26:25;;;;;;;21.50;10.77;;;;;;;9.85;100.00;98983.41;5022941;28;20057;-79
2023/10/27 05:28:51;;;;;;;20.80;11.32;;;;;;;9.88;100.00;98980.47;5024556;28;20026;-79
2023/10/27 05:31:17;;;;;;;25.63;11.57;;;;;;;9.89;100.00;98979.47;5011570;28;20030;-80
2023/10/27 05:33:42;;;;;;;21.83;11.38;;;;;;;9.90;100.00;98981.13;5025683;28;20125;-79
2023/10/27 05:36:08;;;;;;;29.90;12.23;;;;;;;9.89;100.00;98976.84;5006708;28;20030;-81
2023/10/27 05:38:33;;;;;;;20.70;11.18;;;;;;;9.92;100.00;98980.97;5023382;28;20030;-80
2023/10/27 05:40:58;;;;;;;23.05;12.20;;;;;;;9.89;100.00;98982.09;5010690;28;20022;-80
2023/10/27 05:43:25;;;;;;;18.40;11.40;;;;;;;9.94;100.00;98979.00;5004529;28;20025;-81
2023/10/27 05:45:50;;;;;;;24.13;12.27;;;;;;;9.94;100.00;98973.75;5010089;28;20502;-81
2023/10/27 05:48:15;;;;;;;20.05;11.65;;;;;;;9.91;100.00;98976.69;5025165;28;20029;-82
2023/10/27 05:50:40;;;;;;;20.98;12.13;;;;;;;9.91;100.00;98977.50;5009775;28;20058;-82
2023/10/27 05:53:06;;;;;;;18.05;12.15;;;;;;;9.92;100.00;98976.53;5024224;28;20030;-82
2023/10/27 05:55:34;;;;;;;20.23;12.30;;;;;;;9.92;100.00;98981.78;5006305;28;20117;-82
2023/10/27 05:58:00;;;;;;;20.30;12.48;;;;;;;9.91;100.00;98980.16;5008734;28;20033;-82
2023/10/27 06:00:25;;;;;;;16.13;12.00;;;;;;;9.94;100.00;98974.56;5009775;28;20025;-81
2023/10/27 06:02:53;;;;;;;17.42;13.18;;;;;;;9.90;100.00;98978.50;5013155;28;20519;-81
2023/10/27 06:05:20;;;;;;;20.35;13.23;;;;;;;9.92;100.00;98976.53;5014260;28;20623;-81
2023/10/27 06:07:46;;;;;;;16.77;13.13;;;;;;;9.91;100.00;98977.50;5025389;28;20096;-81
2023/10/27 06:10:11;;;;;;;15.35;13.70;;;;;;;9.91;100.00;98977.50;5010234;28;20112;-82
2023/10/27 06:12:37;;;;;;;20.58;15.10;;;;;;;9.89;100.00;98976.84;5008604;28;20057;-80
2023/10/27 06:15:03;;;;;;;19.08;15.15;;;;;;;9.90;100.00;98988.19;5003896;28;20018;-81
2023/10/27 06:17:29;;;;;;;17.33;14.90;;;;;;;9.89;100.00;98987.34;4989545;28;20476;-81
2023/10/27 06:19:55;;;;;;;18.65;14.45;;;;;;;9.91;100.00;98984.56;5003131;28;20045;-80
2023/10/27 06:22:21;;;;;;;19.70;14.27;;;;;;;9.88;100.00;98996.22;5009615;28;20064;-80
2023/10/27 06:24:46;;;;;;;16.65;13.13;;;;;;;9.86;100.00;98992.09;5008909;28;20419;-81
2023/10/27 06:27:11;;;;;;;17.10;12.43;;;;;;;9.84;100.00;98989.63;5012028;28;20125;-81
2023/10/27 06:29:37;;;;;;;17.63;12.85;;;;;;;9.85;100.00;98991.28;5021832;28;20022;-81
2023/10/27 06:32:03;;;;;;;17.63;13.18;;;;;;;9.82;100.00;98994.22;5011168;28;20460;-81
2023/10/27 06:34:28;;;;;;;15.75;13.48;;;;;;;9.80;100.00;98993.53;5009139;28;20030;-81
2023/10/27 06:36:54;;;;;;;16.77;11.95;;;;;;;9.83;100.00;98998.47;5023635;28;20030;-81
2023/10/27 06:39:19;;;;;;;18.92;12.95;;;;;;;9.84;100.00;99005.38;5022616;28;20060;-80
2023/10/27 06:41:46;;;;;;;15.82;12.07;;;;;;;9.83;100.00;98998.47;5032453;28;20014;-81
2023/10/27 06:44:12;;;;;;;15.73;11.80;;;;;;;9.85;100.00;99001.78;5008867;28;20052;-81
2023/10/27 06:46:37;;;;;;;17.58;13.38;;;;;;;9.85;100.00;98999.16;5037133;28;20056;-81
2023/10/27 06:49:03;;;;;;;15.43;12.77;;;;;;;9.86;100.00;99008.69;5023200;28;20046;-82
2023/10/27 06:51:28;;;;;;;19.23;13.02;;;;;;;9.89;100.00;99008.38;5022113;28;20025;-81
2023/10/27 06:53:53;;;;;;;15.40;12.40;;;;;;;9.91;100.00;99006.41;5026279;28;20030;-82
2023/10/27 06:56:19;;;;;;;15.30;12.93;;;;;;;9.92;100.00;99012.50;5012859;28;20113;-82
2023/10/27 06:58:44;;;;;;;15.05;12.40;;;;;;;9.90;100.00;99004.75;5013337;28;20021;-82
2023/10/27 07:01:10;;;;;;;14.13;11.38;;;;;;;9.92;100.00;99013.31;5022273;28;20143;-81
2023/10/27 07:03:37;;;;;;;14.18;11.60;;;;;;;9.89;100.00;99007.53;5051055;28;20033;-81
2023/10/27 07:06:06;;;;;;;14.25;11.77;;;;;;;9.91;100.00;99016.91;5069385;28;20075;-83
2023/10/27 07:08:34;;;;;;;18.58;12.30;;;;;;;9.91;100.00;99011.66;5060785;28;20497;-83
2023/10/27 07:11:03;;;;;;;15.98;11.80;;;;;;;9.92;100.00;99015.94;5053178;28;20025;-82
2023/10/27 07:13:30;;;;;;;13.88;11.77;;;;;;;9.98;100.00;99022.38;5051874;28;20021;-82
2023/10/27 07:15:55;;;;;;;15.02;12.68;;;;;;;9.97;100.00;99020.72;5034087;28;20029;-82
2023/10/27 07:18:21;;;;;;;15.38;12.57;;;;;;;9.94;100.00;99027.13;5049859;28;20074;-82
2023/10/27 07:20:47;;;;;;;17.42;12.68;;;;;;;9.95;100.00;99028.75;5055276;28;20017;-82
2023/10/27 07:23:13;;;;;;;15.35;12.40;;;;;;;9.97;100.00;99032.06;5052179;28;20025;-78
2023/10/27 07:25:38;;;;;;;14.15;11.80;;;;;;;9.99;100.00;99035.34;5053301;28;20036;-78
2023/10/27 07:28:04;;;;;;;15.73;12.52;;;;;;;10.02;100.00;99037.72;5054295;28;20154;-78
2023/10/27 07:30:30;;;;;;;13.93;12.07;;;;;;;10.03;100.00;99036.72;5054040;28;20048;-77
2023/10/27 07:32:56;;;;;;;14.43;12.50;;;;;;;10.06;100.00;99038.22;5066892;28;20039;-80
2023/10/27 07:35:21;;;;;;;16.02;11.88;;;;;;;10.04;100.00;99046.25;5076130;28;20013;-82
2023/10/27 07:37:47;;;;;;;13.93;12.05;;;;;;;10.08;100.00;99048.56;5062360;28;20029;-80
2023/10/27 07:40:15;;;;;;;13.85;11.90;;;;;;;10.08;100.00;99049.41;5074800;28;20017;-80
2023/10/27 07:42:41;;;;;;;16.48;12.25;;;;;;;10.09;100.00;99055.47;5073677;28;20096;-80
2023/10/27 07:45:07;;;;;;;13.65;12.23;;;;;;;10.10;100.00;99051.88;5054523;28;20032;-78
2023/10/27 07:47:33;;;;;;;13.55;11.95;;;;;;;10.10;100.00;99055.31;5070172;28;20047;-80
2023/10/27 07:50:00;;;;;;;13.70;12.00;;;;;;;10.13;100.00;99052.38;5042595;28;20029;-80
2023/10/27 07:52:25;;;;;;;17.15;12.07;;;;;;;10.14;100.00;99058.47;5035774;28;20025;-79
2023/10/27 07:54:51;;;;;;;16.40;12.60;;;;;;;10.14;100.00;99053.22;5069388;28;20433;-80
2023/10/27 07:57:16;;;;;;;14.52;12.65;;;;;;;10.13;100.00;99062.91;5065010;28;20190;-81
2023/10/27 07:59:42;;;;;;;15.98;12.15;;;;;;;10.15;100.00;99065.38;5053131;28;20021;-81
2023/10/27 08:02:07;;;;;;;17.90;12.15;;;;;;;10.17;100.00;99068.66;5050969;28;20048;-80
2023/10/27 08:04:34;;;;;;;13.30;11.68;;;;;;;10.16;100.00;99067.03;5052985;28;20368;-81
2023/10/27 08:07:00;;;;;;;13.68;11.63;;;;;;;10.17;100.00;99068.66;5051289;28;20076;-80
2023/10/27 08:09:25;;;;;;;13.90;12.32;;;;;;;10.13;100.00;99064.69;5066021;28;20082;-80
2023/10/27 08:11:53;;;;;;;13.80;11.32;;;;;;;10.10;100.00;99057.13;5057671;28;20044;-80
2023/10/27 08:14:18;;;;;;;12.70;11.00;;;;;;;10.13;100.00;99064.69;5065088;28;20044;-80
2023/10/27 08:16:44;;;;;;;13.00;11.48;;;;;;;10.17;100.00;99066.03;5070733;28;20016;-81
2023/10/27 08:19:10;;;;;;;13.05;11.82;;;;;;;10.13;100.00;99067.31;5075045;28;20047;-80
2023/10/27 08:21:35;;;;;;;12.80;11.50;;;;;;;10.11;100.00;99074.53;5053944;28;20034;-81
2023/10/27 08:24:00;;;;;;;13.30;11.93;;;;;;;10.12;100.00;99073.56;5066742;28;20025;-81
2023/10/27 08:26:26;;;;;;;12.05;10.85;;;;;;;10.11;100.00;99079.78;5075014;28;20033;-81
2023/10/27 08:28:51;;;;;;;12.30;11.00;;;;;;;10.15;100.00;99075.88;5074397;28;20040;-81
2023/10/27 08:31:17;;;;;;;12.65;10.35;;;;;;;10.15;100.00;99091.66;5073938;28;20020;-80
2023/10/27 08:33:42;;;;;;;10.52;9.52;;;;;;;10.16;100.00;99088.03;5074083;28;20024;-79
2023/10/27 08:36:08;;;;;;;9.98;8.95;;;;;;;10.17;100.00;99085.25;5071952;28;20030;-81
2023/10/27 08:38:33;;;;;;;10.20;9.30;;;;;;;10.19;100.00;99085.94;5055979;28;20037;-80
2023/10/27 08:41:02;;;;;;;10.32;9.30;;;;;;;10.24;100.00;99086.31;5074430;28;20013;-81
2023/10/27 08:43:28;;;;;;;10.70;9.02;;;;;;;10.24;100.00;99091.56;5071424;28;20013;-80
2023/10/27 08:45:54;;;;;;;9.82;8.82;;;;;;;10.26;100.00;99096.69;5071575;28;20078;-82
2023/10/27 08:48:19;;;;;;;13.40;9.50;;;;;;;10.26;100.00;99094.03;5072142;28;20271;-81
2023/10/27 08:50:44;;;;;;;10.60;9.60;;;;;;;10.26;100.00;99094.88;5067218;28;20007;-79
2023/10/27 08:53:12;;;;;;;11.20;10.10;;;;;;;10.29;100.00;99099.00;5077204;28;20032;-80
2023/10/27 08:55:38;;;;;;;10.98;9.88;;;;;;;10.32;100.00;99098.69;5071970;28;19997;-80
2023/10/27 08:58:03;;;;;;;11.52;10.45;;;;;;;10.32;100.00;99099.50;5054915;28;20021;-80
2023/10/27 09:00:29;;;;;;;12.40;10.90;;;;;;;10.29;100.00;99093.72;5054990;28;20029;-81
2023/10/27 09:02:54;;;;;;;12.40;11.18;;;;;;;10.29;100.00;99091.94;5071498;28;20073;-81
2023/10/27 09:05:21;;;;;;;16.27;11.57;;;;;;;10.32;100.00;99094.25;5072104;28;20037;-79
2023/10/27 09:07:47;;;;;;;13.68;11.32;;;;;;;10.35;100.00;99096.56;5073464;28;20032;-81
2023/10/27 09:10:13;;;;;;;14.50;11.43;;;;;;;10.35;100.00;99106.25;5070327;28;20041;-81
2023/10/27 09:12:39;;;;;;;14.02;11.30;;;;;;;10.35;100.00;99106.25;5069544;28;20029;-80
2023/10/27 09:15:07;;;;;;;13.05;11.65;;;;;;;10.39;100.00;99104.97;5073156;28;20017;-81
2023/10/27 09:17:51;;;;;;;13.13;11.02;;;;;;;10.46;100.00;99097.31;5053855;28;20120;-80
2023/10/27 09:20:18;;;;;;;13.88;11.25;;;;;;;10.46;100.00;99100.75;5068764;28;20025;-80
2023/10/27 09:23:06;;;;;;;12.27;11.00;;;;;;;10.53;100.00;99104.41;5068707;28;20029;-80
2023/10/27 09:25:33;;;;;;;12.57;11.27;;;;;;;10.50;100.00;99099.47;5059283;28;20009;-81
2023/10/27 09:28:02;;;;;;;12.10;10.70;;;;;;;10.51;100.00;99102.91;5072873;28;20015;-79
2023/10/27 09:30:29;;;;;;;13.43;11.10;;;;;;;10.50;100.00;99104.72;5070529;28;20077;-80
2023/10/27 09:33:09;;;;;;;13.25;10.75;;;;;;;10.54;100.00;99090.28;5051999;28;20025;-79
2023/10/27 09:35:35;;;;;;;13.43;11.52;;;;;;;10.55;100.00;99091.09;5055119;28;20029;-81
2023/10/27 09:38:03;;;;;;;15.18;11.45;;;;;;;10.56;100.00;99104.09;5029845;28;20112;-81
2023/10/27 09:40:28;;;;;;;13.95;11.15;;;;;;;10.57;100.00;99092.59;5030431;28;20020;-81
2023/10/27 09:42:58;;;;;;;16.10;11.77;;;;;;;10.62;100.00;99100.84;5050494;28;20111;-81
2023/10/27 09:45:32;;;;;;;13.52;11.50;;;;;;;10.68;100.00;99096.75;5049808;28;20025;-82
2023/10/27 09:48:04;;;;;;;15.93;12.68;;;;;;;10.71;100.00;99098.25;5048030;28;20040;-81
2023/10/27 09:50:30;;;;;;;18.00;13.55;;;;;;;10.81;100.00;99098.97;5050218;28;20037;-82
2023/10/27 09:53:00;;;;;;;16.48;12.52;;;;;;;10.83;100.00;99107.53;5049882;28;20501;-82
2023/10/27 09:55:32;;;;;;;18.15;14.38;;;;;;;10.88;100.00;99094.72;5051143;28;20485;-83
2023/10/27 09:57:59;;;;;;;18.58;14.13;;;;;;;10.91;100.00;99095.22;5033223;28;20140;-83
2023/10/27 10:00:28;;;;;;;17.35;14.38;;;;;;;10.88;100.00;99100.81;5049523;28;20104;-82
2023/10/27 10:02:56;;;;;;;17.30;14.35;;;;;;;10.97;100.00;99101.66;5032674;28;20061;-82
2023/10/27 10:05:23;;;;;;;16.40;14.38;;;;;;;10.97;100.00;99099.03;5045532;28;20378;-82
2023/10/27 10:07:56;;;;;;;17.55;14.85;;;;;;;10.99;100.00;99108.41;5051167;28;20020;-82
2023/10/27 10:10:33;;;;;;;15.77;14.07;;;;;;;10.95;100.00;99112.34;5046331;28;20060;-81
2023/10/27 10:13:01;;;;;;;15.75;13.38;;;;;;;10.92;100.00;99123.19;5059309;28;20036;-82
2023/10/27 10:15:35;;;;;;;15.15;13.52;;;;;;;10.88;100.00;99124.47;5048092;28;20032;-83
2023/10/27 10:18:03;;;;;;;15.15;13.07;;;;;;;10.85;100.00;99116.91;5032078;28;20017;-82
2023/10/27 10:20:52;;;;;;;15.30;13.43;;;;;;;10.91;100.00;99123.34;5032729;28;20021;-82
2023/10/27 10:23:19;;;;;;;16.73;13.77;;;;;;;10.95;100.00;99116.78;5049060;28;20036;-83
2023/10/27 10:25:57;;;;;;;15.73;13.23;;;;;;;10.93;100.00;99124.84;5053924;28;20546;-82
2023/10/27 10:28:27;;;;;;;16.27;13.07;;;;;;;10.93;100.00;99124.00;5049588;28;20029;-81
2023/10/27 10:31:08;;;;;;;17.30;13.93;;;;;;;10.95;100.00;99122.03;5038381;28;20032;-81
2023/10/27 10:33:40;;;;;;;17.63;14.60;;;;;;;10.91;100.00;99118.09;5046683;28;20032;-82
2023/10/27 10:36:18;;;;;;;18.13;14.20;;;;;;;10.90;100.00;99125.16;5031660;28;20108;-81
2023/10/27 10:38:55;;;;;;;22.92;18.50;;;;;;;10.87;100.00;99124.66;5046983;28;20061;-81
2023/10/27 10:41:41;;;;;;;20.08;17.10;;;;;;;10.87;100.00;99124.66;5044102;28;20029;-81
2023/10/27 10:44:26;;;;;;;21.63;18.25;;;;;;;10.89;100.00;99123.50;5043096;28;20047;-81
2023/10/27 10:46:51;;;;;;;26.58;19.85;;;;;;;10.83;100.00;99118.06;5038422;28;20040;-81
2023/10/27 10:49:24;;;;;;;26.52;20.10;;;;;;;10.81;100.00;99120.00;5032982;28;20033;-81
2023/10/27 10:51:54;;;;;;;25.70;20.52;;;;;;;10.82;100.00;99121.66;5030356;28;20037;-82
2023/10/27 10:54:25;;;;;;;26.13;20.83;;;;;;;10.81;100.00;99117.38;5045870;28;20232;-82
2023/10/27 10:57:02;;;;;;;25.02;20.17;;;;;;;10.86;100.00;99118.56;5030893;28;20386;-82
2023/10/27 10:59:27;;;;;;;23.98;19.05;;;;;;;10.89;100.00;99123.50;5049321;28;20021;-82
2023/10/27 11:01:57;;;;;;;23.80;19.15;;;;;;;10.90;100.00;99119.88;5049143;28;20603;-81
2023/10/27 11:04:36;;;;;;;23.15;17.98;;;;;;;10.96;100.00;99119.25;5030648;28;20569;-82
2023/10/27 11:07:03;;;;;;;23.45;18.77;;;;;;;11.03;100.00;99114.19;5048951;28;20017;-83
2023/10/27 11:09:31;;;;;;;21.85;16.65;;;;;;;11.06;100.00;99116.47;5031974;28;20383;-82